sensor_id;sensor_type;location;lat;lon;timestamp;temperature;humidity
18823;DHT22;9540;51.550;7.980;2023-05-10T00:01:00;12.90;99.90
18823;DHT22;9540;51.550;7.980;2023-05-10T00:03:30;12.80;99.90
18823;DHT22;9540;51.550;7.980;2023-05-10T00:05:57;12.80;99.90
18823;DHT22;9540;51.550;7.980;2023-05-10T00:08:25;12.70;99.90
18823;DHT22;9540;51.550;7.980;2023-05-10T00:10:53;12.70;99.90
18823;DHT22;9540;51.550;7.980;2023-05-10T00:13:21;12.70;99.90
18823;DHT22;9540;51.550;7.980;2023-05-10T00:15:49;12.50;99.90
18823;DHT22;9540;51.550;7.980;2023-05-10T00:18:16;12.50;99.90
18823;DHT22;9540;51.550;7.980;2023-05-10T00:20:44;12.50;99.90
18823;DHT22;9540;51.550;7.980;2023-05-10T00:23:12;12.50;99.90
18823;DHT22;9540;51.550;7.980;2023-05-10T00:25:39;12.40;99.90
18823;DHT22;9540;51.550;7.980;2023-05-10T00:28:07;12.40;99.90
18823;DHT22;9540;51.550;7.980;2023-05-10T00:30:34;12.50;99.90
18823;DHT22;9540;51.550;7.980;2023-05-10T00:33:01;12.50;99.90
18823;DHT22;9540;51.550;7.980;2023-05-10T00:35:29;12.50;99.90
18823;DHT22;9540;51.550;7.980;2023-05-10T00:37:57;12.40;99.90
18823;DHT22;9540;51.550;7.980;2023-05-10T00:40:25;12.40;99.90
18823;DHT22;9540;51.550;7.980;2023-05-10T00:42:52;12.40;99.90
18823;DHT22;9540;51.550;7.980;2023-05-10T00:45:19;12.40;99.90
18823;DHT22;9540;51.550;7.980;2023-05-10T00:47:46;12.40;99.90
18823;DHT22;9540;51.550;7.980;2023-05-10T00:50:14;12.40;99.90
18823;DHT22;9540;51.550;7.980;2023-05-10T00:52:42;12.40;99.90
18823;DHT22;9540;51.550;7.980;2023-05-10T00:55:11;12.40;99.90
18823;DHT22;9540;51.550;7.980;2023-05-10T00:57:38;12.40;99.90
18823;DHT22;9540;51.550;7.980;2023-05-10T01:00:07;12.40;99.90
18823;DHT22;9540;51.550;7.980;2023-05-10T01:02:35;12.40;99.90
18823;DHT22;9540;51.550;7.980;2023-05-10T01:05:03;12.40;99.90
18823;DHT22;9540;51.550;7.980;2023-05-10T01:07:30;12.40;99.90
18823;DHT22;9540;51.550;7.980;2023-05-10T01:09:58;12.40;99.90
18823;DHT22;9540;51.550;7.980;2023-05-10T01:12:27;12.50;99.90
18823;DHT22;9540;51.550;7.980;2023-05-10T01:14:55;12.50;99.90
18823;DHT22;9540;51.550;7.980;2023-05-10T01:17:23;12.40;99.90
18823;DHT22;9540;51.550;7.980;2023-05-10T01:19:51;12.50;99.90
18823;DHT22;9540;51.550;7.980;2023-05-10T01:22:54;12.50;99.90
18823;DHT22;9540;51.550;7.980;2023-05-10T01:25:55;12.50;99.90
18823;DHT22;9540;51.550;7.980;2023-05-10T01:28:50;12.50;99.90
18823;DHT22;9540;51.550;7.980;2023-05-10T01:31:30;12.50;99.90
18823;DHT22;9540;51.550;7.980;2023-05-10T01:34:04;12.40;99.90
18823;DHT22;9540;51.550;7.980;2023-05-10T01:36:40;12.40;99.90
18823;DHT22;9540;51.550;7.980;2023-05-10T01:39:14;12.40;99.90
18823;DHT22;9540;51.550;7.980;2023-05-10T01:41:49;12.40;99.90
18823;DHT22;9540;51.550;7.980;2023-05-10T01:44:24;12.40;99.90
18823;DHT22;9540;51.550;7.980;2023-05-10T01:47:00;12.40;99.90
18823;DHT22;9540;51.550;7.980;2023-05-10T01:49:33;12.40;99.90
18823;DHT22;9540;51.550;7.980;2023-05-10T01:52:06;12.40;99.90
18823;DHT22;9540;51.550;7.980;2023-05-10T01:54:36;12.40;99.90
18823;DHT22;9540;51.550;7.980;2023-05-10T01:57:06;12.40;99.90
18823;DHT22;9540;51.550;7.980;2023-05-10T01:59:39;12.40;99.90
18823;DHT22;9540;51.550;7.980;2023-05-10T02:02:08;12.30;99.90
18823;DHT22;9540;51.550;7.980;2023-05-10T02:04:39;12.30;99.90
18823;DHT22;9540;51.550;7.980;2023-05-10T02:07:08;12.40;99.90
18823;DHT22;9540;51.550;7.980;2023-05-10T02:09:37;12.30;99.90
18823;DHT22;9540;51.550;7.980;2023-05-10T02:12:05;12.30;99.90
18823;DHT22;9540;51.550;7.980;2023-05-10T02:14:37;12.30;99.90
18823;DHT22;9540;51.550;7.980;2023-05-10T02:17:06;12.30;99.90
18823;DHT22;9540;51.550;7.980;2023-05-10T02:19:38;12.30;99.90
18823;DHT22;9540;51.550;7.980;2023-05-10T02:22:08;12.30;99.90
18823;DHT22;9540;51.550;7.980;2023-05-10T02:24:36;12.30;99.90
18823;DHT22;9540;51.550;7.980;2023-05-10T02:27:04;12.30;99.90
18823;DHT22;9540;51.550;7.980;2023-05-10T02:29:32;12.30;99.90
18823;DHT22;9540;51.550;7.980;2023-05-10T02:32:00;12.30;99.90
18823;DHT22;9540;51.550;7.980;2023-05-10T02:34:28;12.20;99.90
18823;DHT22;9540;51.550;7.980;2023-05-10T02:36:58;12.20;99.90
18823;DHT22;9540;51.550;7.980;2023-05-10T02:39:26;12.20;99.90
18823;DHT22;9540;51.550;7.980;2023-05-10T02:41:56;12.20;99.90
18823;DHT22;9540;51.550;7.980;2023-05-10T02:44:26;12.30;99.90
18823;DHT22;9540;51.550;7.980;2023-05-10T02:46:54;12.30;99.90
18823;DHT22;9540;51.550;7.980;2023-05-10T02:49:22;12.20;99.90
18823;DHT22;9540;51.550;7.980;2023-05-10T02:51:54;12.20;99.90
18823;DHT22;9540;51.550;7.980;2023-05-10T02:54:29;12.20;99.90
18823;DHT22;9540;51.550;7.980;2023-05-10T02:56:59;12.30;99.90
18823;DHT22;9540;51.550;7.980;2023-05-10T02:59:27;12.30;99.90
18823;DHT22;9540;51.550;7.980;2023-05-10T03:01:54;12.30;99.90
18823;DHT22;9540;51.550;7.980;2023-05-10T03:04:21;12.30;99.90
18823;DHT22;9540;51.550;7.980;2023-05-10T03:06:48;12.30;99.90
18823;DHT22;9540;51.550;7.980;2023-05-10T03:09:16;12.40;99.90
18823;DHT22;9540;51.550;7.980;2023-05-10T03:12:06;12.30;99.90
18823;DHT22;9540;51.550;7.980;2023-05-10T03:14:45;12.40;99.90
18823;DHT22;9540;51.550;7.980;2023-05-10T03:17:20;12.40;99.90
18823;DHT22;9540;51.550;7.980;2023-05-10T03:19:53;12.30;99.90
18823;DHT22;9540;51.550;7.980;2023-05-10T03:22:24;12.40;99.90
18823;DHT22;9540;51.550;7.980;2023-05-10T03:24:55;12.30;99.90
18823;DHT22;9540;51.550;7.980;2023-05-10T03:27:26;12.20;99.90
18823;DHT22;9540;51.550;7.980;2023-05-10T03:29:56;12.10;99.90
18823;DHT22;9540;51.550;7.980;2023-05-10T03:32:24;12.10;99.90
18823;DHT22;9540;51.550;7.980;2023-05-10T03:34:52;12.00;99.90
18823;DHT22;9540;51.550;7.980;2023-05-10T03:37:19;12.00;99.90
18823;DHT22;9540;51.550;7.980;2023-05-10T03:39:46;12.00;99.90
18823;DHT22;9540;51.550;7.980;2023-05-10T03:42:14;11.90;99.90
18823;DHT22;9540;51.550;7.980;2023-05-10T03:44:44;11.90;99.90
18823;DHT22;9540;51.550;7.980;2023-05-10T03:47:11;11.80;99.90
18823;DHT22;9540;51.550;7.980;2023-05-10T03:49:38;11.80;99.90
18823;DHT22;9540;51.550;7.980;2023-05-10T03:52:06;11.80;99.90
18823;DHT22;9540;51.550;7.980;2023-05-10T03:54:33;11.70;99.90
18823;DHT22;9540;51.550;7.980;2023-05-10T03:57:00;11.70;99.90
18823;DHT22;9540;51.550;7.980;2023-05-10T03:59:28;11.70;99.90
18823;DHT22;9540;51.550;7.980;2023-05-10T04:01:57;11.70;99.90
18823;DHT22;9540;51.550;7.980;2023-05-10T04:04:24;11.70;99.90
18823;DHT22;9540;51.550;7.980;2023-05-10T04:06:51;11.70;99.90
18823;DHT22;9540;51.550;7.980;2023-05-10T04:09:18;11.70;99.90
18823;DHT22;9540;51.550;7.980;2023-05-10T04:11:45;11.70;99.90
18823;DHT22;9540;51.550;7.980;2023-05-10T04:14:12;11.80;99.90
18823;DHT22;9540;51.550;7.980;2023-05-10T04:16:39;11.80;99.90
18823;DHT22;9540;51.550;7.980;2023-05-10T04:19:08;11.80;99.90
18823;DHT22;9540;51.550;7.980;2023-05-10T04:21:36;11.70;99.90
18823;DHT22;9540;51.550;7.980;2023-05-10T04:24:04;11.80;99.90
18823;DHT22;9540;51.550;7.980;2023-05-10T04:26:31;11.80;99.90
18823;DHT22;9540;51.550;7.980;2023-05-10T04:28:58;11.80;99.90
18823;DHT22;9540;51.550;7.980;2023-05-10T04:31:25;11.80;99.90
18823;DHT22;9540;51.550;7.980;2023-05-10T04:33:53;11.80;99.90
18823;DHT22;9540;51.550;7.980;2023-05-10T04:36:25;11.80;99.90
18823;DHT22;9540;51.550;7.980;2023-05-10T04:38:52;11.80;99.90
18823;DHT22;9540;51.550;7.980;2023-05-10T04:41:19;11.70;99.90
18823;DHT22;9540;51.550;7.980;2023-05-10T04:43:46;11.70;99.90
18823;DHT22;9540;51.550;7.980;2023-05-10T04:46:14;11.70;99.90
18823;DHT22;9540;51.550;7.980;2023-05-10T04:48:42;11.70;99.90
18823;DHT22;9540;51.550;7.980;2023-05-10T04:51:09;11.70;99.90
18823;DHT22;9540;51.550;7.980;2023-05-10T04:53:37;11.70;99.90
18823;DHT22;9540;51.550;7.980;2023-05-10T04:56:05;11.70;99.90
18823;DHT22;9540;51.550;7.980;2023-05-10T04:58:32;11.80;99.90
18823;DHT22;9540;51.550;7.980;2023-05-10T05:01:05;11.80;99.90
18823;DHT22;9540;51.550;7.980;2023-05-10T05:03:33;11.80;99.90
18823;DHT22;9540;51.550;7.980;2023-05-10T05:06:00;11.80;99.90
18823;DHT22;9540;51.550;7.980;2023-05-10T05:08:27;11.80;99.90
18823;DHT22;9540;51.550;7.980;2023-05-10T05:10:59;11.80;99.90
18823;DHT22;9540;51.550;7.980;2023-05-10T05:13:26;11.90;99.90
18823;DHT22;9540;51.550;7.980;2023-05-10T05:15:53;11.90;99.90
18823;DHT22;9540;51.550;7.980;2023-05-10T05:18:21;11.90;99.90
18823;DHT22;9540;51.550;7.980;2023-05-10T05:20:48;12.00;99.90
18823;DHT22;9540;51.550;7.980;2023-05-10T05:23:15;12.00;99.90
18823;DHT22;9540;51.550;7.980;2023-05-10T05:25:42;12.00;99.90
18823;DHT22;9540;51.550;7.980;2023-05-10T05:28:11;12.10;99.90
18823;DHT22;9540;51.550;7.980;2023-05-10T05:30:38;12.10;99.90
18823;DHT22;9540;51.550;7.980;2023-05-10T05:33:05;12.10;99.90
18823;DHT22;9540;51.550;7.980;2023-05-10T05:35:32;12.20;99.90
18823;DHT22;9540;51.550;7.980;2023-05-10T05:37:59;12.30;99.90
18823;DHT22;9540;51.550;7.980;2023-05-10T05:40:26;12.40;99.90
18823;DHT22;9540;51.550;7.980;2023-05-10T05:42:54;12.50;99.90
18823;DHT22;9540;51.550;7.980;2023-05-10T05:45:22;12.50;99.90
18823;DHT22;9540;51.550;7.980;2023-05-10T05:47:49;12.60;99.90
18823;DHT22;9540;51.550;7.980;2023-05-10T05:50:16;12.60;99.90
18823;DHT22;9540;51.550;7.980;2023-05-10T05:52:43;12.60;99.90
18823;DHT22;9540;51.550;7.980;2023-05-10T05:55:11;12.60;99.90
18823;DHT22;9540;51.550;7.980;2023-05-10T05:57:38;12.60;99.90
18823;DHT22;9540;51.550;7.980;2023-05-10T06:00:06;12.60;99.90
18823;DHT22;9540;51.550;7.980;2023-05-10T06:02:35;12.50;99.90
18823;DHT22;9540;51.550;7.980;2023-05-10T06:05:03;12.50;99.90
18823;DHT22;9540;51.550;7.980;2023-05-10T06:07:30;12.40;99.90
18823;DHT22;9540;51.550;7.980;2023-05-10T06:09:57;12.40;99.90
18823;DHT22;9540;51.550;7.980;2023-05-10T06:12:24;12.40;99.90
18823;DHT22;9540;51.550;7.980;2023-05-10T06:14:52;12.40;99.90
18823;DHT22;9540;51.550;7.980;2023-05-10T06:17:19;12.40;99.90
18823;DHT22;9540;51.550;7.980;2023-05-10T06:19:48;12.50;99.90
18823;DHT22;9540;51.550;7.980;2023-05-10T06:22:16;12.60;99.90
18823;DHT22;9540;51.550;7.980;2023-05-10T06:24:43;12.80;99.90
18823;DHT22;9540;51.550;7.980;2023-05-10T06:27:10;12.90;99.90
18823;DHT22;9540;51.550;7.980;2023-05-10T06:29:37;12.90;99.90
18823;DHT22;9540;51.550;7.980;2023-05-10T06:32:05;12.90;99.90
18823;DHT22;9540;51.550;7.980;2023-05-10T06:34:32;12.90;99.90
18823;DHT22;9540;51.550;7.980;2023-05-10T06:37:01;12.90;99.90
18823;DHT22;9540;51.550;7.980;2023-05-10T06:39:29;12.90;99.90
18823;DHT22;9540;51.550;7.980;2023-05-10T06:41:56;12.90;99.90
18823;DHT22;9540;51.550;7.980;2023-05-10T06:44:23;12.90;99.90
18823;DHT22;9540;51.550;7.980;2023-05-10T06:46:50;13.00;99.90
18823;DHT22;9540;51.550;7.980;2023-05-10T06:49:19;13.10;99.90
18823;DHT22;9540;51.550;7.980;2023-05-10T06:51:46;13.10;99.90
18823;DHT22;9540;51.550;7.980;2023-05-10T06:54:14;13.10;99.90
18823;DHT22;9540;51.550;7.980;2023-05-10T06:56:41;13.00;99.90
18823;DHT22;9540;51.550;7.980;2023-05-10T06:59:08;13.00;99.90
18823;DHT22;9540;51.550;7.980;2023-05-10T07:01:36;13.00;99.90
18823;DHT22;9540;51.550;7.980;2023-05-10T07:04:03;12.90;99.90
18823;DHT22;9540;51.550;7.980;2023-05-10T07:06:30;13.00;99.90
18823;DHT22;9540;51.550;7.980;2023-05-10T07:08:57;12.90;99.90
18823;DHT22;9540;51.550;7.980;2023-05-10T07:11:26;12.90;99.90
18823;DHT22;9540;51.550;7.980;2023-05-10T07:13:53;13.00;99.90
18823;DHT22;9540;51.550;7.980;2023-05-10T07:16:20;13.10;99.90
18823;DHT22;9540;51.550;7.980;2023-05-10T07:18:47;13.10;99.90
18823;DHT22;9540;51.550;7.980;2023-05-10T07:21:16;13.20;99.90
18823;DHT22;9540;51.550;7.980;2023-05-10T07:23:43;13.30;99.90
18823;DHT22;9540;51.550;7.980;2023-05-10T07:26:10;13.30;99.90
18823;DHT22;9540;51.550;7.980;2023-05-10T07:28:38;13.40;99.90
18823;DHT22;9540;51.550;7.980;2023-05-10T07:31:06;13.40;99.90
18823;DHT22;9540;51.550;7.980;2023-05-10T07:33:33;13.40;99.90
18823;DHT22;9540;51.550;7.980;2023-05-10T07:36:00;13.40;99.90
18823;DHT22;9540;51.550;7.980;2023-05-10T07:38:27;13.50;99.90
18823;DHT22;9540;51.550;7.980;2023-05-10T07:40:54;13.60;99.90
18823;DHT22;9540;51.550;7.980;2023-05-10T07:43:21;13.80;99.90
18823;DHT22;9540;51.550;7.980;2023-05-10T07:45:50;13.80;99.90
18823;DHT22;9540;51.550;7.980;2023-05-10T07:48:17;13.80;99.90
18823;DHT22;9540;51.550;7.980;2023-05-10T07:50:44;13.70;99.90
18823;DHT22;9540;51.550;7.980;2023-05-10T07:53:11;13.70;99.90
18823;DHT22;9540;51.550;7.980;2023-05-10T07:55:38;13.60;99.90
18823;DHT22;9540;51.550;7.980;2023-05-10T07:58:05;13.60;99.90
18823;DHT22;9540;51.550;7.980;2023-05-10T08:00:32;13.70;99.90
18823;DHT22;9540;51.550;7.980;2023-05-10T08:03:02;13.70;99.90
18823;DHT22;9540;51.550;7.980;2023-05-10T08:05:29;13.80;99.90
18823;DHT22;9540;51.550;7.980;2023-05-10T08:07:56;13.80;99.90
18823;DHT22;9540;51.550;7.980;2023-05-10T08:10:25;13.80;99.90
18823;DHT22;9540;51.550;7.980;2023-05-10T08:12:52;13.70;99.90
18823;DHT22;9540;51.550;7.980;2023-05-10T08:15:19;13.60;99.90
18823;DHT22;9540;51.550;7.980;2023-05-10T08:17:46;13.70;99.90
18823;DHT22;9540;51.550;7.980;2023-05-10T08:20:15;13.80;99.90
18823;DHT22;9540;51.550;7.980;2023-05-10T08:22:45;13.80;99.90
18823;DHT22;9540;51.550;7.980;2023-05-10T08:25:12;13.90;99.90
18823;DHT22;9540;51.550;7.980;2023-05-10T08:27:39;14.10;99.90
18823;DHT22;9540;51.550;7.980;2023-05-10T08:30:07;14.30;99.90
18823;DHT22;9540;51.550;7.980;2023-05-10T08:32:34;14.40;99.90
18823;DHT22;9540;51.550;7.980;2023-05-10T08:35:03;14.50;99.90
18823;DHT22;9540;51.550;7.980;2023-05-10T08:37:32;14.30;99.90
18823;DHT22;9540;51.550;7.980;2023-05-10T08:39:59;14.40;99.90
18823;DHT22;9540;51.550;7.980;2023-05-10T08:42:30;14.30;99.90
18823;DHT22;9540;51.550;7.980;2023-05-10T08:44:57;14.30;99.90
18823;DHT22;9540;51.550;7.980;2023-05-10T08:47:26;14.40;99.90
18823;DHT22;9540;51.550;7.980;2023-05-10T08:49:54;14.50;99.90
18823;DHT22;9540;51.550;7.980;2023-05-10T08:52:23;14.50;99.90
18823;DHT22;9540;51.550;7.980;2023-05-10T08:54:54;14.60;99.90
18823;DHT22;9540;51.550;7.980;2023-05-10T08:57:21;14.90;99.90
18823;DHT22;9540;51.550;7.980;2023-05-10T08:59:49;14.90;99.90
18823;DHT22;9540;51.550;7.980;2023-05-10T09:02:17;15.10;99.90
18823;DHT22;9540;51.550;7.980;2023-05-10T09:04:45;15.20;99.90
18823;DHT22;9540;51.550;7.980;2023-05-10T09:07:12;15.30;99.90
18823;DHT22;9540;51.550;7.980;2023-05-10T09:09:39;15.40;99.90
18823;DHT22;9540;51.550;7.980;2023-05-10T09:12:08;15.60;99.90
18823;DHT22;9540;51.550;7.980;2023-05-10T09:14:38;15.80;99.90
18823;DHT22;9540;51.550;7.980;2023-05-10T09:17:05;15.90;99.90
18823;DHT22;9540;51.550;7.980;2023-05-10T09:19:33;16.10;99.90
18823;DHT22;9540;51.550;7.980;2023-05-10T09:22:00;16.10;99.90
18823;DHT22;9540;51.550;7.980;2023-05-10T09:24:29;15.90;99.90
18823;DHT22;9540;51.550;7.980;2023-05-10T09:26:57;15.90;99.90
18823;DHT22;9540;51.550;7.980;2023-05-10T09:29:26;15.70;99.90
18823;DHT22;9540;51.550;7.980;2023-05-10T09:31:53;15.40;99.90
18823;DHT22;9540;51.550;7.980;2023-05-10T09:34:28;14.90;99.90
18823;DHT22;9540;51.550;7.980;2023-05-10T09:36:58;14.70;99.90
18823;DHT22;9540;51.550;7.980;2023-05-10T09:39:32;14.60;99.90
18823;DHT22;9540;51.550;7.980;2023-05-10T09:42:01;14.50;99.90
18823;DHT22;9540;51.550;7.980;2023-05-10T09:44:31;14.30;99.90
18823;DHT22;9540;51.550;7.980;2023-05-10T09:46:58;14.20;99.90
18823;DHT22;9540;51.550;7.980;2023-05-10T09:49:26;14.20;99.90
18823;DHT22;9540;51.550;7.980;2023-05-10T09:52:03;14.30;99.90
18823;DHT22;9540;51.550;7.980;2023-05-10T09:54:31;14.40;99.90
18823;DHT22;9540;51.550;7.980;2023-05-10T09:56:59;14.50;99.90
18823;DHT22;9540;51.550;7.980;2023-05-10T09:59:26;14.70;99.90
18823;DHT22;9540;51.550;7.980;2023-05-10T10:01:57;15.10;99.90
18823;DHT22;9540;51.550;7.980;2023-05-10T10:04:26;15.60;99.90
18823;DHT22;9540;51.550;7.980;2023-05-10T10:07:00;15.70;99.90
18823;DHT22;9540;51.550;7.980;2023-05-10T10:09:28;15.60;99.90
18823;DHT22;9540;51.550;7.980;2023-05-10T10:11:56;15.30;99.90
18823;DHT22;9540;51.550;7.980;2023-05-10T10:14:23;15.20;99.90
18823;DHT22;9540;51.550;7.980;2023-05-10T10:16:51;15.20;99.90
18823;DHT22;9540;51.550;7.980;2023-05-10T10:19:20;15.40;99.90
18823;DHT22;9540;51.550;7.980;2023-05-10T10:21:47;15.80;99.90
18823;DHT22;9540;51.550;7.980;2023-05-10T10:24:14;15.80;99.90
18823;DHT22;9540;51.550;7.980;2023-05-10T10:26:42;15.60;99.90
18823;DHT22;9540;51.550;7.980;2023-05-10T10:29:19;15.40;99.90
18823;DHT22;9540;51.550;7.980;2023-05-10T10:31:53;15.40;99.90
18823;DHT22;9540;51.550;7.980;2023-05-10T10:34:26;15.30;99.90
18823;DHT22;9540;51.550;7.980;2023-05-10T10:36:55;15.30;99.90
18823;DHT22;9540;51.550;7.980;2023-05-10T10:39:23;15.20;99.90
18823;DHT22;9540;51.550;7.980;2023-05-10T10:41:53;15.30;99.90
18823;DHT22;9540;51.550;7.980;2023-05-10T10:44:36;15.40;99.90
18823;DHT22;9540;51.550;7.980;2023-05-10T10:47:20;15.50;99.90
18823;DHT22;9540;51.550;7.980;2023-05-10T10:50:03;15.90;99.90
18823;DHT22;9540;51.550;7.980;2023-05-10T10:52:34;16.10;99.90
18823;DHT22;9540;51.550;7.980;2023-05-10T10:55:04;16.20;99.90
18823;DHT22;9540;51.550;7.980;2023-05-10T10:57:33;16.20;99.90
18823;DHT22;9540;51.550;7.980;2023-05-10T11:00:19;16.10;99.90
18823;DHT22;9540;51.550;7.980;2023-05-10T11:02:47;15.90;99.90
18823;DHT22;9540;51.550;7.980;2023-05-10T11:05:37;15.80;99.90
18823;DHT22;9540;51.550;7.980;2023-05-10T11:08:10;16.00;99.90
18823;DHT22;9540;51.550;7.980;2023-05-10T11:10:38;16.30;99.90
18823;DHT22;9540;51.550;7.980;2023-05-10T11:13:07;16.60;99.90
18823;DHT22;9540;51.550;7.980;2023-05-10T11:15:35;16.70;99.90
18823;DHT22;9540;51.550;7.980;2023-05-10T11:18:17;16.70;99.90
18823;DHT22;9540;51.550;7.980;2023-05-10T11:20:50;17.00;99.90
18823;DHT22;9540;51.550;7.980;2023-05-10T11:23:17;17.30;99.90
18823;DHT22;9540;51.550;7.980;2023-05-10T11:25:46;17.60;99.90
18823;DHT22;9540;51.550;7.980;2023-05-10T11:28:13;17.70;99.90
18823;DHT22;9540;51.550;7.980;2023-05-10T11:30:41;17.60;99.90
18823;DHT22;9540;51.550;7.980;2023-05-10T11:33:09;17.50;99.90
18823;DHT22;9540;51.550;7.980;2023-05-10T11:35:40;17.20;99.90
18823;DHT22;9540;51.550;7.980;2023-05-10T11:38:09;17.00;99.90
18823;DHT22;9540;51.550;7.980;2023-05-10T11:40:38;16.80;99.90
18823;DHT22;9540;51.550;7.980;2023-05-10T11:43:06;16.60;99.90
18823;DHT22;9540;51.550;7.980;2023-05-10T11:45:33;16.50;99.90
18823;DHT22;9540;51.550;7.980;2023-05-10T11:48:01;16.50;99.90
18823;DHT22;9540;51.550;7.980;2023-05-10T11:50:28;16.70;99.90
18823;DHT22;9540;51.550;7.980;2023-05-10T11:52:57;17.00;99.90
18823;DHT22;9540;51.550;7.980;2023-05-10T11:55:25;17.00;99.90
18823;DHT22;9540;51.550;7.980;2023-05-10T11:57:53;17.00;99.90
18823;DHT22;9540;51.550;7.980;2023-05-10T12:00:20;16.80;99.90
18823;DHT22;9540;51.550;7.980;2023-05-10T12:02:48;16.60;99.90
18823;DHT22;9540;51.550;7.980;2023-05-10T12:05:16;16.60;99.90
18823;DHT22;9540;51.550;7.980;2023-05-10T12:07:43;16.70;99.90
18823;DHT22;9540;51.550;7.980;2023-05-10T12:10:11;16.70;99.90
18823;DHT22;9540;51.550;7.980;2023-05-10T12:12:42;16.90;99.90
18823;DHT22;9540;51.550;7.980;2023-05-10T12:15:17;16.90;99.90
18823;DHT22;9540;51.550;7.980;2023-05-10T12:17:45;16.90;99.90
18823;DHT22;9540;51.550;7.980;2023-05-10T12:20:16;16.80;99.90
18823;DHT22;9540;51.550;7.980;2023-05-10T12:22:45;16.60;99.90
18823;DHT22;9540;51.550;7.980;2023-05-10T12:25:12;16.50;99.90
18823;DHT22;9540;51.550;7.980;2023-05-10T12:27:39;16.40;99.90
18823;DHT22;9540;51.550;7.980;2023-05-10T12:30:09;16.20;99.90
18823;DHT22;9540;51.550;7.980;2023-05-10T12:32:40;16.00;99.90
18823;DHT22;9540;51.550;7.980;2023-05-10T12:35:08;16.00;99.90
18823;DHT22;9540;51.550;7.980;2023-05-10T12:37:35;16.00;99.90
18823;DHT22;9540;51.550;7.980;2023-05-10T12:40:09;16.10;99.90
18823;DHT22;9540;51.550;7.980;2023-05-10T12:42:38;16.20;99.90
18823;DHT22;9540;51.550;7.980;2023-05-10T12:45:08;16.50;99.90
18823;DHT22;9540;51.550;7.980;2023-05-10T12:47:36;16.70;99.90
18823;DHT22;9540;51.550;7.980;2023-05-10T12:50:04;16.80;99.90
18823;DHT22;9540;51.550;7.980;2023-05-10T12:52:32;17.00;99.90
18823;DHT22;9540;51.550;7.980;2023-05-10T12:54:59;17.00;99.90
18823;DHT22;9540;51.550;7.980;2023-05-10T12:57:29;16.90;99.90
18823;DHT22;9540;51.550;7.980;2023-05-10T12:59:56;16.80;99.90
18823;DHT22;9540;51.550;7.980;2023-05-10T13:02:25;16.80;99.90
18823;DHT22;9540;51.550;7.980;2023-05-10T13:04:52;16.80;99.90
18823;DHT22;9540;51.550;7.980;2023-05-10T13:07:19;16.90;99.90
18823;DHT22;9540;51.550;7.980;2023-05-10T13:09:46;16.90;99.90
18823;DHT22;9540;51.550;7.980;2023-05-10T13:12:14;17.00;99.90
18823;DHT22;9540;51.550;7.980;2023-05-10T13:14:41;17.30;99.90
18823;DHT22;9540;51.550;7.980;2023-05-10T13:17:08;17.70;99.90
18823;DHT22;9540;51.550;7.980;2023-05-10T13:19:37;17.90;99.90
18823;DHT22;9540;51.550;7.980;2023-05-10T13:22:04;18.10;99.90
18823;DHT22;9540;51.550;7.980;2023-05-10T13:24:32;18.40;99.90
18823;DHT22;9540;51.550;7.980;2023-05-10T13:26:59;18.40;99.90
18823;DHT22;9540;51.550;7.980;2023-05-10T13:29:26;18.40;99.90
18823;DHT22;9540;51.550;7.980;2023-05-10T13:31:53;18.30;99.90
18823;DHT22;9540;51.550;7.980;2023-05-10T13:34:20;17.90;99.90
18823;DHT22;9540;51.550;7.980;2023-05-10T13:36:49;17.70;99.90
18823;DHT22;9540;51.550;7.980;2023-05-10T13:39:16;17.40;99.90
18823;DHT22;9540;51.550;7.980;2023-05-10T13:41:43;17.50;99.90
18823;DHT22;9540;51.550;7.980;2023-05-10T13:44:12;17.60;99.90
18823;DHT22;9540;51.550;7.980;2023-05-10T13:46:40;17.90;99.90
18823;DHT22;9540;51.550;7.980;2023-05-10T13:49:08;17.90;99.90
18823;DHT22;9540;51.550;7.980;2023-05-10T13:51:36;17.60;99.90
18823;DHT22;9540;51.550;7.980;2023-05-10T13:54:04;17.60;99.90
18823;DHT22;9540;51.550;7.980;2023-05-10T13:56:32;17.70;99.90
18823;DHT22;9540;51.550;7.980;2023-05-10T13:58:59;17.70;99.90
18823;DHT22;9540;51.550;7.980;2023-05-10T14:01:26;17.70;99.90
18823;DHT22;9540;51.550;7.980;2023-05-10T14:03:53;17.50;99.90
18823;DHT22;9540;51.550;7.980;2023-05-10T14:06:20;17.40;99.90
18823;DHT22;9540;51.550;7.980;2023-05-10T14:08:47;17.30;99.90
18823;DHT22;9540;51.550;7.980;2023-05-10T14:11:16;17.20;99.90
18823;DHT22;9540;51.550;7.980;2023-05-10T14:13:43;16.90;99.90
18823;DHT22;9540;51.550;7.980;2023-05-10T14:16:10;16.80;99.90
18823;DHT22;9540;51.550;7.980;2023-05-10T14:18:40;16.80;99.90
18823;DHT22;9540;51.550;7.980;2023-05-10T14:21:07;17.00;99.90
18823;DHT22;9540;51.550;7.980;2023-05-10T14:23:34;17.10;99.90
18823;DHT22;9540;51.550;7.980;2023-05-10T14:26:01;17.20;99.90
18823;DHT22;9540;51.550;7.980;2023-05-10T14:28:29;17.40;99.90
18823;DHT22;9540;51.550;7.980;2023-05-10T14:30:57;17.70;99.90
18823;DHT22;9540;51.550;7.980;2023-05-10T14:33:24;17.90;99.90
18823;DHT22;9540;51.550;7.980;2023-05-10T14:35:51;18.10;99.90
18823;DHT22;9540;51.550;7.980;2023-05-10T14:38:18;18.30;99.90
18823;DHT22;9540;51.550;7.980;2023-05-10T14:40:45;18.50;99.90
18823;DHT22;9540;51.550;7.980;2023-05-10T14:43:13;18.60;99.90
18823;DHT22;9540;51.550;7.980;2023-05-10T14:45:41;18.40;99.90
18823;DHT22;9540;51.550;7.980;2023-05-10T14:48:09;18.40;99.90
18823;DHT22;9540;51.550;7.980;2023-05-10T14:50:40;18.40;99.90
18823;DHT22;9540;51.550;7.980;2023-05-10T14:53:08;18.50;99.90
18823;DHT22;9540;51.550;7.980;2023-05-10T14:55:35;18.30;99.90
18823;DHT22;9540;51.550;7.980;2023-05-10T14:58:02;18.10;99.90
18823;DHT22;9540;51.550;7.980;2023-05-10T15:00:30;17.80;99.90
18823;DHT22;9540;51.550;7.980;2023-05-10T15:02:58;17.70;99.90
18823;DHT22;9540;51.550;7.980;2023-05-10T15:05:26;17.70;99.90
18823;DHT22;9540;51.550;7.980;2023-05-10T15:07:53;17.70;99.90
18823;DHT22;9540;51.550;7.980;2023-05-10T15:10:20;17.80;99.90
18823;DHT22;9540;51.550;7.980;2023-05-10T15:12:47;17.90;99.90
18823;DHT22;9540;51.550;7.980;2023-05-10T15:15:14;17.90;99.90
18823;DHT22;9540;51.550;7.980;2023-05-10T15:17:42;17.80;99.90
18823;DHT22;9540;51.550;7.980;2023-05-10T15:20:11;17.80;99.90
18823;DHT22;9540;51.550;7.980;2023-05-10T15:22:38;17.80;99.90
18823;DHT22;9540;51.550;7.980;2023-05-10T15:25:06;17.80;99.90
18823;DHT22;9540;51.550;7.980;2023-05-10T15:27:33;17.70;99.90
18823;DHT22;9540;51.550;7.980;2023-05-10T15:30:01;17.80;99.90
18823;DHT22;9540;51.550;7.980;2023-05-10T15:32:28;17.70;99.90
18823;DHT22;9540;51.550;7.980;2023-05-10T15:34:55;17.80;99.90
18823;DHT22;9540;51.550;7.980;2023-05-10T15:37:24;17.80;99.90
18823;DHT22;9540;51.550;7.980;2023-05-10T15:39:51;17.80;99.90
18823;DHT22;9540;51.550;7.980;2023-05-10T15:42:18;17.80;99.90
18823;DHT22;9540;51.550;7.980;2023-05-10T15:44:46;17.90;99.90
18823;DHT22;9540;51.550;7.980;2023-05-10T15:47:15;18.00;99.90
18823;DHT22;9540;51.550;7.980;2023-05-10T15:49:43;18.10;99.90
18823;DHT22;9540;51.550;7.980;2023-05-10T15:52:10;18.20;99.90
18823;DHT22;9540;51.550;7.980;2023-05-10T15:54:39;18.30;99.90